Terminal Aerodrome Forecast
Issued by NWS Sterling, VA

Current Version | Previous Version | Graphics & Text | Print | Product List | Glossary On
Versions: 1 2 3 4 5 6 7 8 9 10 11 12 13 14 15 16 17 18 19 20 21 22 23 24
000
FTUS41 KLWX 192000 AAA
TAFIAD
TAF AMD
KIAD 192057Z 1921/2024 11005KT P6SM BKN050 BKN250
     FM200500 05004KT P6SM OVC090
     FM201900 11004KT P6SM BKN050=

USA.gov is the U.S. government's official web portal to all federal, state and local government web resources and services.